sensor_id;sensor_type;location;lat;lon;timestamp;temperature;humidity
7325;DHT22;3703;48.016;7.802;2023-08-08T00:04:23;17.20;99.90
7325;DHT22;3703;48.016;7.802;2023-08-08T00:06:56;17.20;99.90
7325;DHT22;3703;48.016;7.802;2023-08-08T00:09:23;17.80;99.90
7325;DHT22;3703;48.016;7.802;2023-08-08T00:11:50;17.40;99.90
7325;DHT22;3703;48.016;7.802;2023-08-08T00:16:44;18.20;99.90
7325;DHT22;3703;48.016;7.802;2023-08-08T00:19:11;17.90;99.90
7325;DHT22;3703;48.016;7.802;2023-08-08T00:21:39;17.60;99.90
7325;DHT22;3703;48.016;7.802;2023-08-08T00:24:08;18.20;99.90
7325;DHT22;3703;48.016;7.802;2023-08-08T00:26:35;18.00;99.90
7325;DHT22;3703;48.016;7.802;2023-08-08T00:29:02;17.70;99.90
7325;DHT22;3703;48.016;7.802;2023-08-08T00:31:29;17.50;99.90
7325;DHT22;3703;48.016;7.802;2023-08-08T00:33:56;17.80;99.90
7325;DHT22;3703;48.016;7.802;2023-08-08T00:36:23;17.80;99.90
7325;DHT22;3703;48.016;7.802;2023-08-08T00:41:19;17.70;99.90
7325;DHT22;3703;48.016;7.802;2023-08-08T00:46:13;17.50;99.90
7325;DHT22;3703;48.016;7.802;2023-08-08T00:51:08;17.90;99.90
7325;DHT22;3703;48.016;7.802;2023-08-08T00:58:31;17.40;99.90
7325;DHT22;3703;48.016;7.802;2023-08-08T01:06:00;17.10;1.00
7325;DHT22;3703;48.016;7.802;2023-08-08T01:08:35;17.10;1.00
7325;DHT22;3703;48.016;7.802;2023-08-08T01:13:33;17.10;1.00
7325;DHT22;3703;48.016;7.802;2023-08-08T01:16:03;17.00;1.00
7325;DHT22;3703;48.016;7.802;2023-08-08T01:18:32;17.30;1.00
7325;DHT22;3703;48.016;7.802;2023-08-08T01:23:32;16.80;1.00
7325;DHT22;3703;48.016;7.802;2023-08-08T01:26:03;17.00;1.00
7325;DHT22;3703;48.016;7.802;2023-08-08T01:35:55;16.90;1.00
7325;DHT22;3703;48.016;7.802;2023-08-08T01:38:30;17.20;1.00
7325;DHT22;3703;48.016;7.802;2023-08-08T01:40:59;16.90;1.00
7325;DHT22;3703;48.016;7.802;2023-08-08T01:43:29;17.10;1.00
7325;DHT22;3703;48.016;7.802;2023-08-08T01:58:16;17.10;99.90
7325;DHT22;3703;48.016;7.802;2023-08-08T02:15:31;17.00;99.90
7325;DHT22;3703;48.016;7.802;2023-08-08T02:17:59;16.80;1.00
7325;DHT22;3703;48.016;7.802;2023-08-08T02:32:47;16.70;1.00
7325;DHT22;3703;48.016;7.802;2023-08-08T02:45:06;16.50;1.00
7325;DHT22;3703;48.016;7.802;2023-08-08T02:50:03;15.10;1.00
7325;DHT22;3703;48.016;7.802;2023-08-08T03:07:19;16.00;1.00
7325;DHT22;3703;48.016;7.802;2023-08-08T03:24:32;15.80;1.00
7325;DHT22;3703;48.016;7.802;2023-08-08T03:34:21;15.50;1.00
7325;DHT22;3703;48.016;7.802;2023-08-08T03:41:45;15.70;1.00
7325;DHT22;3703;48.016;7.802;2023-08-08T03:58:59;15.60;1.00
7325;DHT22;3703;48.016;7.802;2023-08-08T04:16:15;15.60;1.00
7325;DHT22;3703;48.016;7.802;2023-08-08T04:33:29;15.50;1.00
7325;DHT22;3703;48.016;7.802;2023-08-08T04:38:24;15.50;1.00
7325;DHT22;3703;48.016;7.802;2023-08-08T04:48:13;15.80;1.00
7325;DHT22;3703;48.016;7.802;2023-08-08T04:50:42;15.60;1.00
7325;DHT22;3703;48.016;7.802;2023-08-08T05:05:27;15.40;1.00
7325;DHT22;3703;48.016;7.802;2023-08-08T05:07:55;15.70;1.00
7325;DHT22;3703;48.016;7.802;2023-08-08T05:17:45;15.70;1.00
7325;DHT22;3703;48.016;7.802;2023-08-08T05:25:09;15.50;1.00
7325;DHT22;3703;48.016;7.802;2023-08-08T05:30:05;15.60;1.00
7325;DHT22;3703;48.016;7.802;2023-08-08T05:42:27;16.00;1.00
7325;DHT22;3703;48.016;7.802;2023-08-08T05:52:20;16.10;99.90
7325;DHT22;3703;48.016;7.802;2023-08-08T05:59:46;16.60;1.00
7325;DHT22;3703;48.016;7.802;2023-08-08T06:12:05;17.70;99.90
7325;DHT22;3703;48.016;7.802;2023-08-08T06:17:03;18.00;1.00
7325;DHT22;3703;48.016;7.802;2023-08-08T06:34:18;18.20;99.90
7325;DHT22;3703;48.016;7.802;2023-08-08T06:51:34;19.00;22.50
7325;DHT22;3703;48.016;7.802;2023-08-08T06:56:28;19.10;99.90
7325;DHT22;3703;48.016;7.802;2023-08-08T06:58:55;19.10;22.90
7325;DHT22;3703;48.016;7.802;2023-08-08T07:06:18;19.30;1.00
7325;DHT22;3703;48.016;7.802;2023-08-08T07:08:46;19.50;99.90
7325;DHT22;3703;48.016;7.802;2023-08-08T07:11:13;20.40;99.90
7325;DHT22;3703;48.016;7.802;2023-08-08T07:13:40;19.50;1.00
7325;DHT22;3703;48.016;7.802;2023-08-08T07:16:07;19.70;99.90
7325;DHT22;3703;48.016;7.802;2023-08-08T07:18:34;20.80;23.20
7325;DHT22;3703;48.016;7.802;2023-08-08T07:21:03;20.30;1.00
7325;DHT22;3703;48.016;7.802;2023-08-08T07:23:31;20.10;1.00
7325;DHT22;3703;48.016;7.802;2023-08-08T07:26:00;19.80;55.20
7325;DHT22;3703;48.016;7.802;2023-08-08T07:28:27;19.50;1.00
7325;DHT22;3703;48.016;7.802;2023-08-08T07:30:54;19.80;99.90
7325;DHT22;3703;48.016;7.802;2023-08-08T07:33:21;19.60;1.00
7325;DHT22;3703;48.016;7.802;2023-08-08T07:35:48;19.80;1.00
7325;DHT22;3703;48.016;7.802;2023-08-08T07:38:15;19.20;99.90
7325;DHT22;3703;48.016;7.802;2023-08-08T07:40:42;19.40;99.90
7325;DHT22;3703;48.016;7.802;2023-08-08T07:43:11;19.20;51.20
7325;DHT22;3703;48.016;7.802;2023-08-08T07:45:38;19.70;99.90
7325;DHT22;3703;48.016;7.802;2023-08-08T07:48:05;19.80;99.90
7325;DHT22;3703;48.016;7.802;2023-08-08T07:50:33;19.80;99.90
7325;DHT22;3703;48.016;7.802;2023-08-08T07:53:00;19.20;99.90
7325;DHT22;3703;48.016;7.802;2023-08-08T07:55:27;19.40;99.90
7325;DHT22;3703;48.016;7.802;2023-08-08T07:57:54;19.40;54.80
7325;DHT22;3703;48.016;7.802;2023-08-08T08:00:22;19.40;99.90
7325;DHT22;3703;48.016;7.802;2023-08-08T08:02:49;19.60;99.90
7325;DHT22;3703;48.016;7.802;2023-08-08T08:05:17;19.70;99.90
7325;DHT22;3703;48.016;7.802;2023-08-08T08:07:44;20.00;99.90
7325;DHT22;3703;48.016;7.802;2023-08-08T08:10:12;19.80;99.90
7325;DHT22;3703;48.016;7.802;2023-08-08T08:12:40;19.40;99.90
7325;DHT22;3703;48.016;7.802;2023-08-08T08:15:09;19.00;99.90
7325;DHT22;3703;48.016;7.802;2023-08-08T08:17:38;19.00;99.90
7325;DHT22;3703;48.016;7.802;2023-08-08T08:20:06;19.10;99.90
7325;DHT22;3703;48.016;7.802;2023-08-08T08:22:37;18.80;99.90
7325;DHT22;3703;48.016;7.802;2023-08-08T08:25:05;21.80;99.90
7325;DHT22;3703;48.016;7.802;2023-08-08T08:27:35;19.40;99.90
7325;DHT22;3703;48.016;7.802;2023-08-08T08:30:03;19.80;1.00
7325;DHT22;3703;48.016;7.802;2023-08-08T08:32:32;20.00;1.00
7325;DHT22;3703;48.016;7.802;2023-08-08T08:35:02;19.20;1.00
7325;DHT22;3703;48.016;7.802;2023-08-08T08:37:33;19.90;1.00
7325;DHT22;3703;48.016;7.802;2023-08-08T08:40:00;19.90;99.90
7325;DHT22;3703;48.016;7.802;2023-08-08T08:42:30;19.90;99.90
7325;DHT22;3703;48.016;7.802;2023-08-08T08:44:58;19.80;1.00
7325;DHT22;3703;48.016;7.802;2023-08-08T08:47:29;20.10;1.00
7325;DHT22;3703;48.016;7.802;2023-08-08T08:49:57;19.90;1.00
7325;DHT22;3703;48.016;7.802;2023-08-08T08:52:27;20.60;1.00
7325;DHT22;3703;48.016;7.802;2023-08-08T08:54:54;20.50;1.00
7325;DHT22;3703;48.016;7.802;2023-08-08T08:57:22;20.50;1.00
7325;DHT22;3703;48.016;7.802;2023-08-08T08:59:50;20.20;99.90
7325;DHT22;3703;48.016;7.802;2023-08-08T09:02:18;20.40;1.00
7325;DHT22;3703;48.016;7.802;2023-08-08T09:04:45;21.20;1.00
7325;DHT22;3703;48.016;7.802;2023-08-08T09:07:13;20.60;99.90
7325;DHT22;3703;48.016;7.802;2023-08-08T09:09:43;20.60;1.00
7325;DHT22;3703;48.016;7.802;2023-08-08T09:12:11;20.60;99.90
7325;DHT22;3703;48.016;7.802;2023-08-08T09:14:40;20.50;1.00
7325;DHT22;3703;48.016;7.802;2023-08-08T09:17:11;20.50;1.00
7325;DHT22;3703;48.016;7.802;2023-08-08T09:19:42;20.70;1.00
7325;DHT22;3703;48.016;7.802;2023-08-08T09:22:11;20.80;99.90
7325;DHT22;3703;48.016;7.802;2023-08-08T09:24:40;21.10;1.00
7325;DHT22;3703;48.016;7.802;2023-08-08T09:27:09;21.20;8.90
7325;DHT22;3703;48.016;7.802;2023-08-08T09:29:37;20.80;1.00
7325;DHT22;3703;48.016;7.802;2023-08-08T09:32:06;20.90;1.00
7325;DHT22;3703;48.016;7.802;2023-08-08T09:34:33;21.00;1.00
7325;DHT22;3703;48.016;7.802;2023-08-08T09:37:01;20.80;1.00
7325;DHT22;3703;48.016;7.802;2023-08-08T09:39:29;21.10;1.00
7325;DHT22;3703;48.016;7.802;2023-08-08T09:41:56;21.00;99.90
7325;DHT22;3703;48.016;7.802;2023-08-08T09:44:26;20.90;99.90
7325;DHT22;3703;48.016;7.802;2023-08-08T09:46:55;20.90;34.20
7325;DHT22;3703;48.016;7.802;2023-08-08T09:49:23;21.20;99.90
7325;DHT22;3703;48.016;7.802;2023-08-08T09:51:50;21.20;28.60
7325;DHT22;3703;48.016;7.802;2023-08-08T09:54:17;21.20;1.00
7325;DHT22;3703;48.016;7.802;2023-08-08T09:56:45;21.10;1.00
7325;DHT22;3703;48.016;7.802;2023-08-08T09:59:13;22.10;1.00
7325;DHT22;3703;48.016;7.802;2023-08-08T10:01:42;21.30;1.00
7325;DHT22;3703;48.016;7.802;2023-08-08T10:04:11;21.60;1.00
7325;DHT22;3703;48.016;7.802;2023-08-08T10:06:39;21.80;99.90
7325;DHT22;3703;48.016;7.802;2023-08-08T10:09:07;21.70;1.00
7325;DHT22;3703;48.016;7.802;2023-08-08T10:11:34;21.80;99.90
7325;DHT22;3703;48.016;7.802;2023-08-08T10:14:03;22.00;99.90
7325;DHT22;3703;48.016;7.802;2023-08-08T10:16:32;22.30;99.90
7325;DHT22;3703;48.016;7.802;2023-08-08T10:19:02;22.00;99.90
7325;DHT22;3703;48.016;7.802;2023-08-08T10:21:33;21.70;45.20
7325;DHT22;3703;48.016;7.802;2023-08-08T10:24:03;21.60;25.50
7325;DHT22;3703;48.016;7.802;2023-08-08T10:26:31;21.80;1.00
7325;DHT22;3703;48.016;7.802;2023-08-08T10:29:00;22.00;25.30
7325;DHT22;3703;48.016;7.802;2023-08-08T10:31:33;22.50;13.40
7325;DHT22;3703;48.016;7.802;2023-08-08T10:34:06;21.80;1.00
7325;DHT22;3703;48.016;7.802;2023-08-08T10:36:48;22.10;52.70
7325;DHT22;3703;48.016;7.802;2023-08-08T10:39:17;22.20;18.60
7325;DHT22;3703;48.016;7.802;2023-08-08T10:41:46;22.20;34.10
7325;DHT22;3703;48.016;7.802;2023-08-08T10:44:21;22.20;1.00
7325;DHT22;3703;48.016;7.802;2023-08-08T10:46:51;22.20;1.00
7325;DHT22;3703;48.016;7.802;2023-08-08T10:49:20;22.00;1.00
7325;DHT22;3703;48.016;7.802;2023-08-08T10:51:49;22.00;1.00
7325;DHT22;3703;48.016;7.802;2023-08-08T10:54:22;22.20;1.00
7325;DHT22;3703;48.016;7.802;2023-08-08T10:56:54;22.30;1.00
7325;DHT22;3703;48.016;7.802;2023-08-08T10:59:24;22.60;1.00
7325;DHT22;3703;48.016;7.802;2023-08-08T11:01:53;22.10;1.00
7325;DHT22;3703;48.016;7.802;2023-08-08T11:04:24;21.90;1.00
7325;DHT22;3703;48.016;7.802;2023-08-08T11:06:53;22.40;60.60
7325;DHT22;3703;48.016;7.802;2023-08-08T11:09:21;22.50;46.60
7325;DHT22;3703;48.016;7.802;2023-08-08T11:11:48;22.20;1.00
7325;DHT22;3703;48.016;7.802;2023-08-08T11:14:16;22.00;1.00
7325;DHT22;3703;48.016;7.802;2023-08-08T11:16:45;22.20;14.40
7325;DHT22;3703;48.016;7.802;2023-08-08T11:19:14;22.30;51.60
7325;DHT22;3703;48.016;7.802;2023-08-08T11:21:44;22.30;1.00
7325;DHT22;3703;48.016;7.802;2023-08-08T11:24:12;22.40;1.00
7325;DHT22;3703;48.016;7.802;2023-08-08T11:26:41;22.60;1.00
7325;DHT22;3703;48.016;7.802;2023-08-08T11:29:10;23.00;1.00
7325;DHT22;3703;48.016;7.802;2023-08-08T11:31:38;23.30;1.00
7325;DHT22;3703;48.016;7.802;2023-08-08T11:34:05;23.20;1.00
7325;DHT22;3703;48.016;7.802;2023-08-08T11:36:33;22.50;1.00
7325;DHT22;3703;48.016;7.802;2023-08-08T11:39:03;22.50;1.00
7325;DHT22;3703;48.016;7.802;2023-08-08T11:41:34;22.70;1.00
7325;DHT22;3703;48.016;7.802;2023-08-08T11:44:02;22.50;1.00
7325;DHT22;3703;48.016;7.802;2023-08-08T11:46:30;22.60;1.00
7325;DHT22;3703;48.016;7.802;2023-08-08T11:49:03;22.30;1.00
7325;DHT22;3703;48.016;7.802;2023-08-08T11:51:32;22.40;1.00
7325;DHT22;3703;48.016;7.802;2023-08-08T11:54:00;22.30;1.00
7325;DHT22;3703;48.016;7.802;2023-08-08T11:56:33;22.50;1.00
7325;DHT22;3703;48.016;7.802;2023-08-08T11:59:00;22.60;1.00
7325;DHT22;3703;48.016;7.802;2023-08-08T12:01:33;22.40;1.00
7325;DHT22;3703;48.016;7.802;2023-08-08T12:04:04;22.40;1.00
7325;DHT22;3703;48.016;7.802;2023-08-08T12:06:33;22.60;1.00
7325;DHT22;3703;48.016;7.802;2023-08-08T12:09:02;22.80;1.00
7325;DHT22;3703;48.016;7.802;2023-08-08T12:11:29;22.60;1.00
7325;DHT22;3703;48.016;7.802;2023-08-08T12:13:59;22.70;1.00
7325;DHT22;3703;48.016;7.802;2023-08-08T12:16:29;22.80;1.00
7325;DHT22;3703;48.016;7.802;2023-08-08T12:18:56;22.90;1.00
7325;DHT22;3703;48.016;7.802;2023-08-08T12:21:24;23.50;1.00
7325;DHT22;3703;48.016;7.802;2023-08-08T12:23:51;24.20;1.00
7325;DHT22;3703;48.016;7.802;2023-08-08T12:26:20;24.10;99.90
7325;DHT22;3703;48.016;7.802;2023-08-08T12:28:47;23.60;99.90
7325;DHT22;3703;48.016;7.802;2023-08-08T12:31:16;23.00;99.90
7325;DHT22;3703;48.016;7.802;2023-08-08T12:33:43;22.90;99.90
7325;DHT22;3703;48.016;7.802;2023-08-08T12:36:11;22.90;1.00
7325;DHT22;3703;48.016;7.802;2023-08-08T12:38:39;22.90;1.00
7325;DHT22;3703;48.016;7.802;2023-08-08T12:41:07;22.90;1.00
7325;DHT22;3703;48.016;7.802;2023-08-08T12:43:37;22.10;1.00
7325;DHT22;3703;48.016;7.802;2023-08-08T12:46:05;22.20;1.00
7325;DHT22;3703;48.016;7.802;2023-08-08T12:48:32;22.00;1.00
7325;DHT22;3703;48.016;7.802;2023-08-08T12:51:00;22.00;1.00
7325;DHT22;3703;48.016;7.802;2023-08-08T12:53:27;22.40;1.00
7325;DHT22;3703;48.016;7.802;2023-08-08T12:55:54;22.50;1.00
7325;DHT22;3703;48.016;7.802;2023-08-08T12:58:21;22.30;1.00
7325;DHT22;3703;48.016;7.802;2023-08-08T13:00:50;22.20;1.00
7325;DHT22;3703;48.016;7.802;2023-08-08T13:03:18;22.00;1.00
7325;DHT22;3703;48.016;7.802;2023-08-08T13:05:46;22.00;1.00
7325;DHT22;3703;48.016;7.802;2023-08-08T13:08:13;22.30;1.00
7325;DHT22;3703;48.016;7.802;2023-08-08T13:10:40;22.20;1.00
7325;DHT22;3703;48.016;7.802;2023-08-08T13:13:07;22.40;1.00
7325;DHT22;3703;48.016;7.802;2023-08-08T13:15:35;22.20;1.00
7325;DHT22;3703;48.016;7.802;2023-08-08T13:18:04;21.90;1.00
7325;DHT22;3703;48.016;7.802;2023-08-08T13:20:31;22.40;1.00
7325;DHT22;3703;48.016;7.802;2023-08-08T13:22:59;22.30;1.00
7325;DHT22;3703;48.016;7.802;2023-08-08T13:25:27;22.40;2.50
7325;DHT22;3703;48.016;7.802;2023-08-08T13:27:54;23.00;57.10
7325;DHT22;3703;48.016;7.802;2023-08-08T13:30:22;23.30;73.30
7325;DHT22;3703;48.016;7.802;2023-08-08T13:32:49;23.50;11.30
7325;DHT22;3703;48.016;7.802;2023-08-08T13:35:18;23.50;1.00
7325;DHT22;3703;48.016;7.802;2023-08-08T13:37:45;23.70;1.00
7325;DHT22;3703;48.016;7.802;2023-08-08T13:40:15;23.80;1.00
7325;DHT22;3703;48.016;7.802;2023-08-08T13:42:42;23.80;1.00
7325;DHT22;3703;48.016;7.802;2023-08-08T13:45:13;24.00;1.00
7325;DHT22;3703;48.016;7.802;2023-08-08T13:47:40;24.10;21.10
7325;DHT22;3703;48.016;7.802;2023-08-08T13:50:08;24.00;39.00
7325;DHT22;3703;48.016;7.802;2023-08-08T13:52:38;24.10;27.10
7325;DHT22;3703;48.016;7.802;2023-08-08T13:55:06;24.10;4.70
7325;DHT22;3703;48.016;7.802;2023-08-08T13:57:34;24.10;3.10
7325;DHT22;3703;48.016;7.802;2023-08-08T14:00:02;24.20;25.70
7325;DHT22;3703;48.016;7.802;2023-08-08T14:02:31;24.10;4.50
7325;DHT22;3703;48.016;7.802;2023-08-08T14:04:59;24.20;49.30
7325;DHT22;3703;48.016;7.802;2023-08-08T14:07:26;24.20;99.90
7325;DHT22;3703;48.016;7.802;2023-08-08T14:09:54;24.30;99.90
7325;DHT22;3703;48.016;7.802;2023-08-08T14:12:22;24.20;99.90
7325;DHT22;3703;48.016;7.802;2023-08-08T14:14:49;24.10;65.60
7325;DHT22;3703;48.016;7.802;2023-08-08T14:17:16;24.00;1.00
7325;DHT22;3703;48.016;7.802;2023-08-08T14:19:43;23.90;1.00
7325;DHT22;3703;48.016;7.802;2023-08-08T14:22:10;23.90;1.00
7325;DHT22;3703;48.016;7.802;2023-08-08T14:24:38;24.20;1.00
7325;DHT22;3703;48.016;7.802;2023-08-08T14:27:06;24.00;1.00
7325;DHT22;3703;48.016;7.802;2023-08-08T14:29:33;24.00;1.00
7325;DHT22;3703;48.016;7.802;2023-08-08T14:32:01;23.60;1.00
7325;DHT22;3703;48.016;7.802;2023-08-08T14:34:29;23.70;1.00
7325;DHT22;3703;48.016;7.802;2023-08-08T14:36:56;23.30;1.00
7325;DHT22;3703;48.016;7.802;2023-08-08T14:39:24;23.70;1.00
7325;DHT22;3703;48.016;7.802;2023-08-08T14:41:51;23.90;1.00
7325;DHT22;3703;48.016;7.802;2023-08-08T14:44:20;23.50;1.00
7325;DHT22;3703;48.016;7.802;2023-08-08T14:46:47;23.80;1.00
7325;DHT22;3703;48.016;7.802;2023-08-08T14:49:14;23.80;1.00
7325;DHT22;3703;48.016;7.802;2023-08-08T14:51:41;24.10;1.00
7325;DHT22;3703;48.016;7.802;2023-08-08T14:54:08;24.10;1.00
7325;DHT22;3703;48.016;7.802;2023-08-08T14:56:35;24.10;1.00
7325;DHT22;3703;48.016;7.802;2023-08-08T14:59:03;24.20;1.00
7325;DHT22;3703;48.016;7.802;2023-08-08T15:01:31;24.20;1.00
7325;DHT22;3703;48.016;7.802;2023-08-08T15:03:58;24.20;1.00
7325;DHT22;3703;48.016;7.802;2023-08-08T15:06:44;23.80;1.00
7325;DHT22;3703;48.016;7.802;2023-08-08T15:09:30;23.10;1.00
7325;DHT22;3703;48.016;7.802;2023-08-08T15:12:05;23.10;4.30
7325;DHT22;3703;48.016;7.802;2023-08-08T15:14:32;23.50;26.10
7325;DHT22;3703;48.016;7.802;2023-08-08T15:17:01;23.80;99.90
7325;DHT22;3703;48.016;7.802;2023-08-08T15:19:28;24.00;99.90
7325;DHT22;3703;48.016;7.802;2023-08-08T15:21:55;24.20;99.90
7325;DHT22;3703;48.016;7.802;2023-08-08T15:24:22;24.30;99.90
7325;DHT22;3703;48.016;7.802;2023-08-08T15:26:49;24.40;99.90
7325;DHT22;3703;48.016;7.802;2023-08-08T15:29:16;24.40;99.90
7325;DHT22;3703;48.016;7.802;2023-08-08T15:31:43;24.50;99.90
7325;DHT22;3703;48.016;7.802;2023-08-08T15:34:12;24.60;99.90
7325;DHT22;3703;48.016;7.802;2023-08-08T15:36:39;24.50;99.90
7325;DHT22;3703;48.016;7.802;2023-08-08T15:39:06;23.90;1.00
7325;DHT22;3703;48.016;7.802;2023-08-08T15:41:33;23.90;1.00
7325;DHT22;3703;48.016;7.802;2023-08-08T15:44:01;24.30;1.00
7325;DHT22;3703;48.016;7.802;2023-08-08T15:46:28;24.70;1.00
7325;DHT22;3703;48.016;7.802;2023-08-08T15:48:55;24.70;1.00
7325;DHT22;3703;48.016;7.802;2023-08-08T15:51:24;23.50;1.00
7325;DHT22;3703;48.016;7.802;2023-08-08T15:53:51;24.10;1.00
7325;DHT22;3703;48.016;7.802;2023-08-08T15:56:19;24.10;1.00
7325;DHT22;3703;48.016;7.802;2023-08-08T15:58:46;23.80;1.00
7325;DHT22;3703;48.016;7.802;2023-08-08T16:01:14;23.90;1.00
7325;DHT22;3703;48.016;7.802;2023-08-08T16:03:42;23.90;1.00
7325;DHT22;3703;48.016;7.802;2023-08-08T16:06:09;24.40;1.00
7325;DHT22;3703;48.016;7.802;2023-08-08T16:08:38;24.70;1.00
7325;DHT22;3703;48.016;7.802;2023-08-08T16:11:05;24.70;1.00
7325;DHT22;3703;48.016;7.802;2023-08-08T16:13:32;24.30;1.00
7325;DHT22;3703;48.016;7.802;2023-08-08T16:15:59;24.30;1.00
7325;DHT22;3703;48.016;7.802;2023-08-08T16:18:27;24.00;99.90
7325;DHT22;3703;48.016;7.802;2023-08-08T16:20:54;23.80;99.90
7325;DHT22;3703;48.016;7.802;2023-08-08T16:23:21;21.70;99.90
7325;DHT22;3703;48.016;7.802;2023-08-08T16:25:50;23.70;99.90
7325;DHT22;3703;48.016;7.802;2023-08-08T16:28:17;23.50;99.90
7325;DHT22;3703;48.016;7.802;2023-08-08T16:30:44;23.50;1.00
7325;DHT22;3703;48.016;7.802;2023-08-08T16:33:30;23.60;1.00
7325;DHT22;3703;48.016;7.802;2023-08-08T16:35:59;23.50;1.00
7325;DHT22;3703;48.016;7.802;2023-08-08T16:38:26;23.90;1.00
7325;DHT22;3703;48.016;7.802;2023-08-08T16:40:54;23.80;1.00
7325;DHT22;3703;48.016;7.802;2023-08-08T16:43:21;23.80;99.90
7325;DHT22;3703;48.016;7.802;2023-08-08T16:46:07;24.00;99.90
7325;DHT22;3703;48.016;7.802;2023-08-08T16:48:53;23.90;1.00
7325;DHT22;3703;48.016;7.802;2023-08-08T16:51:39;23.40;99.90
7325;DHT22;3703;48.016;7.802;2023-08-08T16:54:24;23.10;1.00
7325;DHT22;3703;48.016;7.802;2023-08-08T16:56:53;23.20;1.00
7325;DHT22;3703;48.016;7.802;2023-08-08T16:59:20;23.10;1.00
7325;DHT22;3703;48.016;7.802;2023-08-08T17:01:48;23.10;1.00
7325;DHT22;3703;48.016;7.802;2023-08-08T17:04:22;22.80;1.00
7325;DHT22;3703;48.016;7.802;2023-08-08T17:06:49;23.00;1.00
7325;DHT22;3703;48.016;7.802;2023-08-08T17:09:19;22.80;1.00
7325;DHT22;3703;48.016;7.802;2023-08-08T17:11:48;22.60;1.00
7325;DHT22;3703;48.016;7.802;2023-08-08T17:14:16;22.60;1.00
7325;DHT22;3703;48.016;7.802;2023-08-08T17:16:44;22.60;28.40
7325;DHT22;3703;48.016;7.802;2023-08-08T17:19:14;22.40;96.40
7325;DHT22;3703;48.016;7.802;2023-08-08T17:21:42;22.60;94.10
7325;DHT22;3703;48.016;7.802;2023-08-08T17:24:10;21.50;99.90
7325;DHT22;3703;48.016;7.802;2023-08-08T17:26:38;22.60;87.80
7325;DHT22;3703;48.016;7.802;2023-08-08T17:29:06;22.90;98.10
7325;DHT22;3703;48.016;7.802;2023-08-08T17:31:35;23.20;80.90
7325;DHT22;3703;48.016;7.802;2023-08-08T17:34:03;22.80;81.60
7325;DHT22;3703;48.016;7.802;2023-08-08T17:36:31;22.80;99.90
7325;DHT22;3703;48.016;7.802;2023-08-08T17:38:59;22.80;99.90
7325;DHT22;3703;48.016;7.802;2023-08-08T17:41:26;22.90;99.90
7325;DHT22;3703;48.016;7.802;2023-08-08T17:43:55;23.40;99.90
7325;DHT22;3703;48.016;7.802;2023-08-08T17:46:22;23.30;99.90
7325;DHT22;3703;48.016;7.802;2023-08-08T17:48:55;23.60;99.90
7325;DHT22;3703;48.016;7.802;2023-08-08T17:51:29;23.40;99.90
7325;DHT22;3703;48.016;7.802;2023-08-08T17:53:56;23.60;72.60
7325;DHT22;3703;48.016;7.802;2023-08-08T17:56:23;23.50;7.60
7325;DHT22;3703;48.016;7.802;2023-08-08T17:58:51;23.20;30.20
7325;DHT22;3703;48.016;7.802;2023-08-08T18:01:18;23.20;52.50
7325;DHT22;3703;48.016;7.802;2023-08-08T18:03:45;23.10;99.90
7325;DHT22;3703;48.016;7.802;2023-08-08T18:06:14;22.90;99.90
7325;DHT22;3703;48.016;7.802;2023-08-08T18:08:41;22.70;99.90
7325;DHT22;3703;48.016;7.802;2023-08-08T18:11:09;22.40;99.90
7325;DHT22;3703;48.016;7.802;2023-08-08T18:13:37;22.60;99.90
7325;DHT22;3703;48.016;7.802;2023-08-08T18:16:05;22.50;99.90
7325;DHT22;3703;48.016;7.802;2023-08-08T18:18:33;22.70;99.90
7325;DHT22;3703;48.016;7.802;2023-08-08T18:21:00;22.70;99.90
7325;DHT22;3703;48.016;7.802;2023-08-08T18:23:29;22.60;99.90
7325;DHT22;3703;48.016;7.802;2023-08-08T18:25:56;22.60;99.90
7325;DHT22;3703;48.016;7.802;2023-08-08T18:28:25;22.70;99.90
7325;DHT22;3703;48.016;7.802;2023-08-08T18:30:52;21.90;99.90
7325;DHT22;3703;48.016;7.802;2023-08-08T18:33:19;22.50;99.90
7325;DHT22;3703;48.016;7.802;2023-08-08T18:35:46;22.50;99.90
7325;DHT22;3703;48.016;7.802;2023-08-08T18:38:14;22.40;99.90
7325;DHT22;3703;48.016;7.802;2023-08-08T18:40:42;22.30;99.90
7325;DHT22;3703;48.016;7.802;2023-08-08T18:43:09;22.10;99.90
7325;DHT22;3703;48.016;7.802;2023-08-08T18:45:36;22.20;99.90
7325;DHT22;3703;48.016;7.802;2023-08-08T18:48:05;22.20;99.90
7325;DHT22;3703;48.016;7.802;2023-08-08T18:50:32;21.90;99.90
7325;DHT22;3703;48.016;7.802;2023-08-08T18:53:00;21.80;1.00
7325;DHT22;3703;48.016;7.802;2023-08-08T18:55:27;21.80;1.00
7325;DHT22;3703;48.016;7.802;2023-08-08T18:57:56;21.70;1.00
7325;DHT22;3703;48.016;7.802;2023-08-08T19:00:24;21.90;1.00
7325;DHT22;3703;48.016;7.802;2023-08-08T19:02:51;21.90;1.00
7325;DHT22;3703;48.016;7.802;2023-08-08T19:05:19;21.90;1.00
7325;DHT22;3703;48.016;7.802;2023-08-08T19:07:47;22.00;1.00
7325;DHT22;3703;48.016;7.802;2023-08-08T19:10:14;22.10;1.00
7325;DHT22;3703;48.016;7.802;2023-08-08T19:12:42;22.10;1.00
7325;DHT22;3703;48.016;7.802;2023-08-08T19:15:10;21.80;1.00
7325;DHT22;3703;48.016;7.802;2023-08-08T19:17:38;21.70;1.00
7325;DHT22;3703;48.016;7.802;2023-08-08T19:20:06;21.60;1.00
7325;DHT22;3703;48.016;7.802;2023-08-08T19:22:34;21.60;1.00
7325;DHT22;3703;48.016;7.802;2023-08-08T19:25:02;21.50;1.00
7325;DHT22;3703;48.016;7.802;2023-08-08T19:27:29;21.50;1.00
7325;DHT22;3703;48.016;7.802;2023-08-08T19:29:56;21.50;1.00
7325;DHT22;3703;48.016;7.802;2023-08-08T19:32:25;21.70;1.00
7325;DHT22;3703;48.016;7.802;2023-08-08T19:34:52;21.70;1.00
7325;DHT22;3703;48.016;7.802;2023-08-08T19:37:19;21.60;1.00
7325;DHT22;3703;48.016;7.802;2023-08-08T19:39:46;22.60;1.00
7325;DHT22;3703;48.016;7.802;2023-08-08T19:42:18;21.70;1.00
7325;DHT22;3703;48.016;7.802;2023-08-08T19:44:45;21.70;1.00
7325;DHT22;3703;48.016;7.802;2023-08-08T19:47:12;21.90;1.00
7325;DHT22;3703;48.016;7.802;2023-08-08T19:49:40;21.80;1.00
7325;DHT22;3703;48.016;7.802;2023-08-08T19:52:09;21.80;82.80
7325;DHT22;3703;48.016;7.802;2023-08-08T19:54:36;21.80;99.90
7325;DHT22;3703;48.016;7.802;2023-08-08T19:57:04;21.80;99.90
7325;DHT22;3703;48.016;7.802;2023-08-08T19:59:31;21.60;1.00
7325;DHT22;3703;48.016;7.802;2023-08-08T20:02:17;21.20;1.00
7325;DHT22;3703;48.016;7.802;2023-08-08T20:05:05;20.90;1.00
7325;DHT22;3703;48.016;7.802;2023-08-08T20:07:33;20.60;99.90
7325;DHT22;3703;48.016;7.802;2023-08-08T20:10:19;20.40;1.00
7325;DHT22;3703;48.016;7.802;2023-08-08T20:13:05;20.40;99.90
7325;DHT22;3703;48.016;7.802;2023-08-08T20:15:32;20.40;1.00
7325;DHT22;3703;48.016;7.802;2023-08-08T20:17:59;20.40;99.90
7325;DHT22;3703;48.016;7.802;2023-08-08T20:20:27;20.60;99.90
7325;DHT22;3703;48.016;7.802;2023-08-08T20:22:55;20.50;99.90
7325;DHT22;3703;48.016;7.802;2023-08-08T20:25:22;20.50;1.00
7325;DHT22;3703;48.016;7.802;2023-08-08T20:27:49;20.40;54.80
7325;DHT22;3703;48.016;7.802;2023-08-08T20:30:16;20.30;99.90
7325;DHT22;3703;48.016;7.802;2023-08-08T20:32:43;20.20;1.00
7325;DHT22;3703;48.016;7.802;2023-08-08T20:35:10;20.40;1.00
7325;DHT22;3703;48.016;7.802;2023-08-08T20:37:39;20.10;8.90
7325;DHT22;3703;48.016;7.802;2023-08-08T20:40:07;19.90;2.80
7325;DHT22;3703;48.016;7.802;2023-08-08T20:42:34;19.80;99.90
7325;DHT22;3703;48.016;7.802;2023-08-08T20:45:02;19.80;99.90
7325;DHT22;3703;48.016;7.802;2023-08-08T20:47:29;19.60;99.90
7325;DHT22;3703;48.016;7.802;2023-08-08T20:49:56;19.50;99.90
7325;DHT22;3703;48.016;7.802;2023-08-08T20:52:24;19.30;1.00
7325;DHT22;3703;48.016;7.802;2023-08-08T20:54:53;19.40;1.00
7325;DHT22;3703;48.016;7.802;2023-08-08T20:57:20;19.40;1.00
7325;DHT22;3703;48.016;7.802;2023-08-08T20:59:47;19.20;99.90
7325;DHT22;3703;48.016;7.802;2023-08-08T21:02:14;19.20;99.90